Terminal Aerodrome Forecast
Issued by NWS Anchorage, AK

Home | Current Version | Previous Version | Text Only | Print | Product List | Glossary On
Versions: 1 2 3 4 5 6 7 8 9 10 11 12 13 14 15 16 17 18 19
000
FTAK31 PANC 071739
TAFANC
TAF
PANC 071739Z 0718/0824 36012KT P6SM VCSH SCT045 OVC070
      TEMPO 0718/0721 -SHSN BKN045
     FM080300 36008KT P6SM BKN080=

USA.gov is the U.S. government's official web portal to all federal, state and local government web resources and services.